KCSM/CSM METAR and TAF weather

Enter ICAO airport designator
Station Type Date Time Source
KCSM METAR 2022/05/24 11:11 UTC NOAA

KCSM 241111Z AUTO 31006KT 5SM RA BR SCT016 BKN070 OVC085 12/12 A2987 RMK AO2 P0005 T01170117


Station Type Date Time Source
KCSM Decoded METAR 2022/05/24 11:11 UTC NOAA

CLINTON-SHERMAN AIRPORT, OK, United States (KCSM) 35-21E 99-12W 588M
May 24, 2022 - 07:11 AM EDT / 2022.05.24 1111 UTC
Wind: from the NW (310 degrees) at 7 MPH (6 KT):0
Visibility: 5 mile(s):0
Sky conditions: overcast
Weather: rain; mist
Precipitation last hour: 0.05 inches
Temperature: 53.1 F (11.7 C)
Dew Point: 53.1 F (11.7 C)
Relative Humidity: 100%
Pressure (altimeter): 29.87 in. Hg (1011 hPa)
ob: KCSM 241111Z AUTO 31006KT 5SM RA BR SCT016 BKN070 OVC085 12/12 A2987 RMK AO2 P0005 T01170117
cycle: 11

Station Type Date Time Source
KCSM TAF 2022/05/24 12:24 UTC NOAA

TAF KCSM 241122Z 2412/2512 VRB05KT 5SM -SHRA OVC040
TEMPO 2412/2415 2SM TSRA BR OVC008CB
FM241500 13012KT P6SM OVC009 PROB30 2421/2502 3SM -TSRA BR OVC004CB
FM250200 34013KT 5SM BR OVC012

Example: see airport list